LFMT Airport Information

Runway Information
Runway 12L Length 8530 ft width 164 ft
Elevation 17 ft Threshold 0 ft Heading 124
Runway 30R Length 8530 ft Width 164 ft
Elevation 6 ft Threshold 0 ft Heading 304
Runway 12R Length 3609 ft width 98 ft
Elevation 10 ft Threshold 328 ft Heading 124
Runway 30L Length 3609 ft Width 98 ft
Elevation 7 ft Threshold 0 ft Heading 304
Airport Frequencies
Type APP Name MONTPELLIE Frequency 120.375 MHZ
Type ATIS Name MONTPELLIE Frequency 124.125 MHZ
Type GND Name MONTPELLIE Frequency 121.95 MHZ
Type TWR Name MONTPELLIE Frequency 118.2 MHZ
Type TWR Name MONTPELLIE Frequency 118.775 MHZ
Airport Navaids
Type VOR-DME Name Mediterranee Frequency 114450 KHZ
Airport Weather Information & NOTAM
ADDS - METARS form results

(0943 UTC 30 October 2020)
Data provider http://aviationweather.gov/metar/data/
 
METAR text: LFMT 300930Z AUTO 01005KT CAVOK 20/09 Q1025 NOSIG
Conditions at: LFMT (FREJORGUES/MONTP, FR) observed 0930 UTC 30 October 2020
Temperature: 20.0°C (68°F)
Dewpoint: 9.0°C (48°F) [RH = 49%]
Pressure (altimeter): 30.27 inches Hg (1025.0 mb)
Winds: from the N (10 degrees) at 6 MPH (5 knots; 2.6 m/s)
Visibility: 6 or more miles (10+ km)
Ceiling: ceiling and visibility are OK
Clouds: unknown
Weather: no significant weather observed at this time

METAR text: LFMT 300900Z AUTO 33004KT 300V360 CAVOK 19/10 Q1025 NOSIG
Conditions at: LFMT (FREJORGUES/MONTP, FR) observed 0900 UTC 30 October 2020
Temperature: 19.0°C (66°F)
Dewpoint: 10.0°C (50°F) [RH = 56%]
Pressure (altimeter): 30.27 inches Hg (1025.0 mb)
Winds: from the NNW (330 degrees) at 5 MPH (4 knots; 2.1 m/s)
Visibility: 6 or more miles (10+ km)
Ceiling: ceiling and visibility are OK
Clouds: unknown
Weather: no significant weather observed at this time

Forecast for: LFMT (FREJORGUES/MONTP, FR)
Text: TAF LFMT 300800Z 3009/3109 VRB05KT CAVOK
Forecast period: 0900 UTC 30 October 2020 to 0900 UTC 31 October 2020
Forecast type: FROM: standard forecast or significant change
Winds: variable direction winds at 6 MPH (5 knots; 2.6 m/s)
Visibility: 6 or more miles (10+ km)
Ceiling: unknown
Clouds: missing
Weather: NSW  (no significant weather)
Text: TEMPO 3100/3107 3300 BR BKN003
Forecast period: 0000 to 0700 UTC 31 October 2020
Forecast type: TEMPORARY: The following changes expected for less than half the time period
Visibility: 2.05 miles (3.30 km)
Ceiling: 300 feet AGL
Clouds: broken clouds at 300 feet AGL
Weather: BR  (mist)